Aviation Digital Data Service (ADDS)

Output produced by METARs form (0653 UTC 28 August 2016)
found at http://www.aviationweather.gov/adds/metars/
 
KSPI 280520Z 2806/2906 19005KT P6SM SCT120 BKN250 
     FM280900 VRB03KT 3SM BR BKN250 
     FM281400 15005KT P6SM SCT025 BKN250 
     FM281900 17005KT P6SM VCTS SCT035CB BKN250 
     FM290100 16004KT P6SM BKN250